createdAt,value
2022-09-03T00:01:40.446Z,92.80
2022-09-03T00:04:21.352Z,92.90
2022-09-03T00:06:58.672Z,92.90
2022-09-03T00:09:27.418Z,93.00
2022-09-03T00:12:03.271Z,93.10
2022-09-03T00:14:40.269Z,93.20
2022-09-03T00:17:38.632Z,93.30
2022-09-03T00:20:13.159Z,93.40
2022-09-03T00:22:43.387Z,93.50
2022-09-03T00:25:14.564Z,93.60
2022-09-03T00:27:42.933Z,93.70
2022-09-03T00:30:29.105Z,93.80
2022-09-03T00:33:11.304Z,93.90
2022-09-03T00:35:47.989Z,94.00
2022-09-03T00:38:14.966Z,94.10
2022-09-03T00:41:11.058Z,94.20
2022-09-03T00:44:09.411Z,94.40
2022-09-03T00:46:59.798Z,94.50
2022-09-03T00:49:33.235Z,94.60
2022-09-03T00:52:25.370Z,94.60
2022-09-03T00:54:56.001Z,94.70
2022-09-03T00:57:32.163Z,94.80
2022-09-03T01:00:04.822Z,94.90
2022-09-03T01:02:47.548Z,94.90
2022-09-03T01:05:56.477Z,95.00
2022-09-03T01:08:51.818Z,95.10
2022-09-03T01:11:55.420Z,95.20
2022-09-03T01:14:53.084Z,95.30
2022-09-03T01:17:51.040Z,95.40
2022-09-03T01:20:33.139Z,95.40
2022-09-03T01:23:21.968Z,95.50
2022-09-03T01:26:11.437Z,95.50
2022-09-03T01:29:12.538Z,95.60
2022-09-03T01:32:09.769Z,95.60
2022-09-03T01:34:45.847Z,95.70
2022-09-03T01:37:33.612Z,95.90
2022-09-03T01:40:37.727Z,95.90
2022-09-03T01:43:34.175Z,96.00
2022-09-03T01:46:26.540Z,96.10
2022-09-03T01:49:05.230Z,96.20
2022-09-03T01:51:32.297Z,96.30
2022-09-03T01:54:21.738Z,96.40
2022-09-03T01:56:51.579Z,96.50
2022-09-03T01:59:29.229Z,96.60
2022-09-03T02:02:03.493Z,96.70
2022-09-03T02:04:32.136Z,96.80
2022-09-03T02:07:00.639Z,96.90
2022-09-03T02:09:32.813Z,96.90
2022-09-03T02:12:08.519Z,97.10
2022-09-03T02:14:35.462Z,97.10
2022-09-03T02:17:02.614Z,97.20
2022-09-03T02:19:29.930Z,97.30
2022-09-03T02:21:57.427Z,97.40
2022-09-03T02:24:25.390Z,97.40
2022-09-03T02:26:53.281Z,97.50
2022-09-03T02:29:20.306Z,97.60
2022-09-03T02:31:47.592Z,97.60
2022-09-03T02:34:14.572Z,97.70
2022-09-03T02:39:29.013Z,97.80
2022-09-03T02:41:57.364Z,97.90
2022-09-03T02:44:28.276Z,98.00
2022-09-03T02:47:00.897Z,98.00
2022-09-03T02:49:28.747Z,98.10
2022-09-03T02:52:06.480Z,98.20
2022-09-03T02:54:35.935Z,98.20
2022-09-03T02:57:03.076Z,98.30
2022-09-03T02:59:30.023Z,98.40
2022-09-03T03:01:56.907Z,98.40
2022-09-03T03:04:28.541Z,98.50
2022-09-03T03:06:55.890Z,98.60
2022-09-03T03:09:22.737Z,98.60
2022-09-03T03:11:50.717Z,98.60
2022-09-03T03:14:18.565Z,98.60
2022-09-03T03:16:45.625Z,98.70
2022-09-03T03:19:12.688Z,98.80
2022-09-03T03:21:39.872Z,98.80
2022-09-03T03:24:07.299Z,98.90
2022-09-03T03:26:34.708Z,99.00
2022-09-03T03:29:04.775Z,99.00
2022-09-03T03:31:32.432Z,99.10
2022-09-03T03:34:01.386Z,99.10
2022-09-03T03:36:30.611Z,99.20
2022-09-03T03:38:58.873Z,99.30
2022-09-03T03:41:33.912Z,99.30
2022-09-03T03:44:05.721Z,99.40
2022-09-03T03:46:37.439Z,99.50
2022-09-03T03:49:06.477Z,99.60
2022-09-03T03:51:34.024Z,99.70
2022-09-03T03:54:04.809Z,99.70
2022-09-03T03:56:32.687Z,99.90
2022-09-03T03:59:00.025Z,99.90
2022-09-03T04:01:27.508Z,99.90
2022-09-03T04:03:59.994Z,99.90
2022-09-03T04:06:27.390Z,99.90
2022-09-03T04:08:54.922Z,99.90
2022-09-03T04:11:22.893Z,99.90
2022-09-03T04:13:50.450Z,99.90
2022-09-03T04:16:25.223Z,99.90
2022-09-03T04:18:53.187Z,99.90
2022-09-03T04:21:25.415Z,99.90
2022-09-03T04:23:55.710Z,99.90
2022-09-03T04:26:31.110Z,99.90
2022-09-03T04:28:59.318Z,99.90
2022-09-03T04:31:26.358Z,99.90
2022-09-03T04:33:54.994Z,99.90
2022-09-03T04:36:23.579Z,99.90
2022-09-03T04:38:52.974Z,99.90
2022-09-03T04:41:23.062Z,99.90
2022-09-03T04:43:51.458Z,99.90
2022-09-03T04:46:19.240Z,99.90
2022-09-03T04:48:51.354Z,99.90
2022-09-03T04:51:21.165Z,99.90
2022-09-03T04:53:53.362Z,99.90
2022-09-03T04:56:22.091Z,99.90
2022-09-03T04:58:49.340Z,99.90
2022-09-03T05:01:20.107Z,99.90
2022-09-03T05:03:47.353Z,99.90
2022-09-03T05:06:17.512Z,99.90
2022-09-03T05:08:48.953Z,99.90
2022-09-03T05:11:17.894Z,99.90
2022-09-03T05:13:49.031Z,99.90
2022-09-03T05:16:16.716Z,99.90
2022-09-03T05:18:45.118Z,99.90
2022-09-03T05:21:14.422Z,99.90
2022-09-03T05:23:42.954Z,99.90
2022-09-03T05:26:13.350Z,99.90
2022-09-03T05:28:41.547Z,99.90
2022-09-03T05:31:22.504Z,99.90
2022-09-03T05:33:51.734Z,99.90
2022-09-03T05:36:21.037Z,99.90
2022-09-03T05:38:48.731Z,99.90
2022-09-03T05:41:17.155Z,99.90
2022-09-03T05:43:48.094Z,99.90
2022-09-03T05:46:18.354Z,99.90
2022-09-03T05:48:45.263Z,99.90
2022-09-03T05:51:16.585Z,99.90
2022-09-03T05:53:46.119Z,99.90
2022-09-03T05:56:17.544Z,99.90
2022-09-03T05:58:49.507Z,99.90
2022-09-03T06:01:28.663Z,99.90
2022-09-03T06:04:02.688Z,99.90
2022-09-03T06:06:31.780Z,99.90
2022-09-03T06:09:03.742Z,99.90
2022-09-03T06:11:32.852Z,99.90
2022-09-03T06:14:05.151Z,99.90
2022-09-03T06:16:34.253Z,99.90
2022-09-03T06:19:01.202Z,99.90
2022-09-03T06:21:28.710Z,99.90
2022-09-03T06:23:59.447Z,99.90
2022-09-03T06:26:29.284Z,99.90
2022-09-03T06:28:57.157Z,99.90
2022-09-03T06:31:24.701Z,99.90
2022-09-03T06:33:53.086Z,99.90
2022-09-03T06:36:20.831Z,99.90
2022-09-03T06:38:47.965Z,99.90
2022-09-03T06:41:23.941Z,99.90
2022-09-03T06:44:04.565Z,99.90
2022-09-03T06:46:33.806Z,99.90
2022-09-03T06:49:04.015Z,99.90
2022-09-03T06:51:33.042Z,99.90
2022-09-03T06:54:04.307Z,99.90
2022-09-03T06:56:36.069Z,99.90
2022-09-03T06:59:11.273Z,99.90
2022-09-03T07:01:43.551Z,99.90
2022-09-03T07:04:12.981Z,99.90
2022-09-03T07:06:41.094Z,99.90
2022-09-03T07:09:08.659Z,99.90
2022-09-03T07:11:36.528Z,99.90
2022-09-03T07:14:04.892Z,99.90
2022-09-03T07:16:37.464Z,99.90
2022-09-03T07:19:07.385Z,99.90
2022-09-03T07:21:37.107Z,99.90
2022-09-03T07:24:05.624Z,99.90
2022-09-03T07:26:38.216Z,99.90
2022-09-03T07:29:07.794Z,99.90
2022-09-03T07:31:39.570Z,99.90
2022-09-03T07:34:11.699Z,99.90
2022-09-03T07:36:48.727Z,99.90
2022-09-03T07:39:16.728Z,99.90
2022-09-03T07:41:45.748Z,99.70
2022-09-03T07:44:15.363Z,99.70
2022-09-03T07:46:45.502Z,99.80
2022-09-03T07:49:12.609Z,99.70
2022-09-03T07:51:39.981Z,99.40
2022-09-03T07:54:09.842Z,99.50
2022-09-03T07:56:37.601Z,99.30
2022-09-03T07:59:05.434Z,99.00
2022-09-03T08:01:33.221Z,98.80
2022-09-03T08:04:01.300Z,98.80
2022-09-03T08:06:29.637Z,98.50
2022-09-03T08:09:07.316Z,98.50
2022-09-03T08:11:37.401Z,98.30
2022-09-03T08:14:07.100Z,98.00
2022-09-03T08:16:36.262Z,97.70
2022-09-03T08:19:05.611Z,97.40
2022-09-03T08:21:32.489Z,97.30
2022-09-03T08:24:05.898Z,97.00
2022-09-03T08:26:37.751Z,97.20
2022-09-03T08:29:05.610Z,96.70
2022-09-03T08:31:33.841Z,96.60
2022-09-03T08:34:06.684Z,96.60
2022-09-03T08:36:36.141Z,96.40
2022-09-03T08:39:04.815Z,96.20
2022-09-03T08:41:53.611Z,95.70
2022-09-03T08:44:25.066Z,95.60
2022-09-03T08:47:06.235Z,95.70
2022-09-03T08:50:02.503Z,95.40
2022-09-03T08:53:00.273Z,95.50
2022-09-03T08:55:46.840Z,95.10
2022-09-03T08:58:21.504Z,95.10
2022-09-03T09:01:03.270Z,95.40
2022-09-03T09:03:45.167Z,95.40
2022-09-03T09:06:24.215Z,95.40
2022-09-03T09:09:13.647Z,95.30
2022-09-03T09:12:01.900Z,94.80
2022-09-03T09:14:34.585Z,94.80
2022-09-03T09:17:23.335Z,94.80
2022-09-03T09:20:22.537Z,94.50
2022-09-03T09:22:52.276Z,94.00
2022-09-03T09:25:20.986Z,93.30
2022-09-03T09:28:10.900Z,93.00
2022-09-03T09:30:37.863Z,92.70
2022-09-03T09:33:05.012Z,92.50
2022-09-03T09:35:31.972Z,92.10
2022-09-03T09:38:00.258Z,92.20
2022-09-03T09:40:44.643Z,91.90
2022-09-03T09:43:21.416Z,90.90
2022-09-03T09:45:50.357Z,90.40
2022-09-03T09:48:23.290Z,90.10
2022-09-03T09:50:50.415Z,89.90
2022-09-03T09:53:18.780Z,88.60
2022-09-03T09:55:53.921Z,88.70
2022-09-03T09:58:23.621Z,88.30
2022-09-03T10:01:05.331Z,88.40
2022-09-03T10:03:35.148Z,87.00
2022-09-03T10:06:27.885Z,85.80
2022-09-03T10:09:19.307Z,85.20
2022-09-03T10:11:51.161Z,84.60
2022-09-03T10:14:26.982Z,83.30
2022-09-03T10:17:02.481Z,82.70
2022-09-03T10:20:19.368Z,81.90
2022-09-03T10:22:56.752Z,81.80
2022-09-03T10:25:27.402Z,80.60
2022-09-03T10:27:55.189Z,80.30
2022-09-03T10:30:23.015Z,81.00
2022-09-03T10:33:17.137Z,81.10
2022-09-03T10:35:46.550Z,81.20
2022-09-03T10:38:33.145Z,81.20
2022-09-03T10:41:13.355Z,80.80
2022-09-03T10:44:11.484Z,79.40
2022-09-03T10:46:45.364Z,80.10
2022-09-03T10:49:30.670Z,77.90
2022-09-03T10:51:57.856Z,78.10
2022-09-03T10:54:55.549Z,76.80
2022-09-03T10:57:49.709Z,77.50
2022-09-03T11:00:20.750Z,76.90
2022-09-03T11:03:07.352Z,77.40
2022-09-03T11:05:42.635Z,77.30
2022-09-03T11:08:37.691Z,75.20
2022-09-03T11:11:14.090Z,74.90
2022-09-03T11:13:51.908Z,73.90
2022-09-03T11:16:21.452Z,73.30
2022-09-03T11:19:01.322Z,73.50
2022-09-03T11:21:29.022Z,73.60
2022-09-03T11:24:07.598Z,72.20
2022-09-03T11:26:35.285Z,71.70
2022-09-03T11:29:25.278Z,71.70
2022-09-03T11:32:08.036Z,72.20
2022-09-03T11:34:54.505Z,72.60
2022-09-03T11:37:29.259Z,71.80
2022-09-03T11:40:07.101Z,70.20
2022-09-03T11:42:37.225Z,70.50
2022-09-03T11:45:19.361Z,69.10
2022-09-03T11:47:47.177Z,69.10
2022-09-03T11:50:21.108Z,68.40
2022-09-03T11:52:50.694Z,68.60
2022-09-03T11:55:32.644Z,68.00
2022-09-03T11:58:20.778Z,67.70
2022-09-03T12:00:48.425Z,67.70
2022-09-03T12:03:16.431Z,67.70
2022-09-03T12:05:51.851Z,66.90
2022-09-03T12:08:47.256Z,66.80
2022-09-03T12:11:36.105Z,66.00
2022-09-03T12:14:23.743Z,66.00
2022-09-03T12:17:05.443Z,66.80
2022-09-03T12:19:46.534Z,66.80
2022-09-03T12:22:17.846Z,67.20
2022-09-03T12:24:45.721Z,66.50
2022-09-03T12:27:16.007Z,66.80
2022-09-03T12:30:00.179Z,65.50
2022-09-03T12:32:37.267Z,65.50
2022-09-03T12:35:58.408Z,65.30
2022-09-03T12:38:04.379Z,64.70
2022-09-03T12:40:32.163Z,65.10
2022-09-03T12:46:14.820Z,63.90
2022-09-03T12:51:54.430Z,61.10
2022-09-03T12:54:22.074Z,61.10
2022-09-03T12:56:54.342Z,59.10
2022-09-03T12:59:21.222Z,59.10
2022-09-03T13:01:50.593Z,58.50
2022-09-03T13:04:20.503Z,58.20
2022-09-03T13:06:52.113Z,57.20
2022-09-03T13:09:21.754Z,57.00
2022-09-03T13:11:49.319Z,56.50
2022-09-03T13:14:17.703Z,56.20
2022-09-03T13:16:48.831Z,56.00
2022-09-03T13:19:25.023Z,54.60
2022-09-03T13:21:52.348Z,53.90
2022-09-03T13:24:38.365Z,53.80
2022-09-03T13:27:30.238Z,54.30
2022-09-03T13:30:09.168Z,54.30
2022-09-03T13:33:01.150Z,54.10
2022-09-03T13:35:42.536Z,54.50
2022-09-03T13:38:40.030Z,54.60
2022-09-03T13:41:19.647Z,54.40
2022-09-03T13:43:55.588Z,54.80
2022-09-03T13:46:31.946Z,54.90
2022-09-03T13:49:37.574Z,54.70
2022-09-03T13:52:07.684Z,55.20
2022-09-03T13:54:54.307Z,55.90
2022-09-03T13:57:31.228Z,55.40
2022-09-03T14:00:23.054Z,55.40
2022-09-03T14:03:16.268Z,55.90
2022-09-03T14:06:02.517Z,56.30
2022-09-03T14:09:07.361Z,56.60
2022-09-03T14:11:41.045Z,56.60
2022-09-03T14:14:22.346Z,56.90
2022-09-03T14:17:04.532Z,57.30
2022-09-03T14:19:37.413Z,57.60
2022-09-03T14:22:43.715Z,57.20
2022-09-03T14:25:16.035Z,57.80
2022-09-03T14:27:43.124Z,57.70
2022-09-03T14:30:31.238Z,58.50
2022-09-03T14:33:11.180Z,58.30
2022-09-03T14:35:56.780Z,58.10
2022-09-03T14:38:35.607Z,59.10
2022-09-03T14:41:06.378Z,59.20
2022-09-03T14:44:15.278Z,59.30
2022-09-03T14:47:00.678Z,59.20
2022-09-03T14:49:33.661Z,59.00
2022-09-03T14:52:28.105Z,59.30
2022-09-03T14:54:56.301Z,59.10
2022-09-03T14:57:49.787Z,59.40
2022-09-03T15:00:34.655Z,59.60
2022-09-03T15:03:40.302Z,59.80
2022-09-03T15:06:11.848Z,59.50
2022-09-03T15:09:00.472Z,59.90
2022-09-03T15:11:31.076Z,60.00
2022-09-03T15:14:05.393Z,59.70
2022-09-03T15:16:35.468Z,60.10
2022-09-03T15:19:23.586Z,60.20
2022-09-03T15:22:18.166Z,60.50
2022-09-03T15:25:10.010Z,60.70
2022-09-03T15:27:57.743Z,61.40
2022-09-03T15:30:24.643Z,61.20
2022-09-03T15:33:19.284Z,61.10
2022-09-03T15:35:56.062Z,60.80
2022-09-03T15:38:47.841Z,61.10
2022-09-03T15:41:33.331Z,61.70
2022-09-03T15:44:01.389Z,61.50
2022-09-03T15:46:39.737Z,61.70
2022-09-03T15:49:47.652Z,62.00
2022-09-03T15:52:40.498Z,61.70
2022-09-03T15:55:10.860Z,61.90
2022-09-03T15:58:14.435Z,61.50
2022-09-03T16:01:00.386Z,62.40
2022-09-03T16:03:41.336Z,62.30
2022-09-03T16:06:19.310Z,62.70
2022-09-03T16:08:49.254Z,62.90
2022-09-03T16:11:18.555Z,62.90
2022-09-03T16:13:57.763Z,63.10
2022-09-03T16:16:31.090Z,62.80
2022-09-03T16:19:10.273Z,62.80
2022-09-03T16:21:50.806Z,62.50
2022-09-03T16:24:21.951Z,62.80
2022-09-03T16:26:56.983Z,63.00
2022-09-03T16:29:28.557Z,63.20
2022-09-03T16:32:11.639Z,62.80
2022-09-03T16:34:53.721Z,62.90
2022-09-03T16:37:23.606Z,62.80
2022-09-03T16:39:50.766Z,63.00
2022-09-03T16:42:23.677Z,63.20
2022-09-03T16:45:07.889Z,63.40
2022-09-03T16:47:49.900Z,63.30
2022-09-03T16:50:40.765Z,63.10
2022-09-03T16:53:11.029Z,63.00
2022-09-03T16:55:44.286Z,62.90
2022-09-03T16:58:49.266Z,63.30
2022-09-03T17:01:29.922Z,63.20
2022-09-03T17:04:03.067Z,63.40
2022-09-03T17:06:36.299Z,63.50
2022-09-03T17:09:15.344Z,63.70
2022-09-03T17:12:12.554Z,63.90
2022-09-03T17:14:39.597Z,64.20
2022-09-03T17:17:17.538Z,64.10
2022-09-03T17:19:53.547Z,64.20
2022-09-03T17:22:40.761Z,64.30
2022-09-03T17:25:35.746Z,64.40
2022-09-03T17:28:24.999Z,64.60
2022-09-03T17:30:59.366Z,65.00
2022-09-03T17:34:00.156Z,65.20
2022-09-03T17:36:28.293Z,65.40
2022-09-03T17:39:36.815Z,65.80
2022-09-03T17:42:29.840Z,66.50
2022-09-03T17:45:23.986Z,66.10
2022-09-03T17:48:03.351Z,66.30
2022-09-03T17:50:34.535Z,66.50
2022-09-03T17:53:09.418Z,66.70
2022-09-03T17:55:42.268Z,67.50
2022-09-03T17:58:26.040Z,67.00
2022-09-03T18:01:05.274Z,67.10
2022-09-03T18:03:53.991Z,67.20
2022-09-03T18:06:29.957Z,68.00
2022-09-03T18:09:07.759Z,67.60
2022-09-03T18:11:40.738Z,67.80
2022-09-03T18:14:23.824Z,67.90
2022-09-03T18:16:56.283Z,68.10
2022-09-03T18:20:03.134Z,68.40
2022-09-03T18:22:53.185Z,68.50
2022-09-03T18:25:38.632Z,68.60
2022-09-03T18:28:26.145Z,68.80
2022-09-03T18:31:11.992Z,68.80
2022-09-03T18:33:57.254Z,69.00
2022-09-03T18:36:42.767Z,69.20
2022-09-03T18:39:45.059Z,69.40
2022-09-03T18:42:39.243Z,69.50
2022-09-03T18:46:07.878Z,69.80
2022-09-03T18:49:16.808Z,69.90
2022-09-03T18:52:12.089Z,70.10
2022-09-03T18:55:16.115Z,70.30
2022-09-03T18:58:33.665Z,70.50
2022-09-03T19:01:40.988Z,70.60
2022-09-03T19:04:30.156Z,70.90
2022-09-03T19:07:26.871Z,71.00
2022-09-03T19:10:26.074Z,71.30
2022-09-03T19:13:31.831Z,71.40
2022-09-03T19:16:35.784Z,71.60
2022-09-03T19:19:50.095Z,71.80
2022-09-03T19:22:55.496Z,72.10
2022-09-03T19:25:42.289Z,72.30
2022-09-03T19:28:41.710Z,72.60
2022-09-03T19:31:56.370Z,72.80
2022-09-03T19:35:14.296Z,73.00
2022-09-03T19:38:18.179Z,72.90
2022-09-03T19:41:11.629Z,73.20
2022-09-03T19:44:00.137Z,73.20
2022-09-03T19:47:00.843Z,73.40
2022-09-03T19:50:04.559Z,73.60
2022-09-03T19:52:53.691Z,73.60
2022-09-03T19:55:43.797Z,73.70
2022-09-03T19:58:42.622Z,73.90
2022-09-03T20:01:29.908Z,74.00
2022-09-03T20:04:17.974Z,74.00
2022-09-03T20:07:04.068Z,74.20
2022-09-03T20:09:56.821Z,74.20
2022-09-03T20:12:24.381Z,74.30
2022-09-03T20:14:51.260Z,74.50
2022-09-03T20:17:33.517Z,74.60
2022-09-03T20:20:16.551Z,74.70
2022-09-03T20:23:12.910Z,74.80
2022-09-03T20:26:16.812Z,74.90
2022-09-03T20:29:09.826Z,75.10
2022-09-03T20:31:40.099Z,75.20
2022-09-03T20:34:27.919Z,75.40
2022-09-03T20:37:25.895Z,75.50
2022-09-03T20:40:17.008Z,75.60
2022-09-03T20:43:22.217Z,75.90
2022-09-03T20:46:07.834Z,76.00
2022-09-03T20:49:07.751Z,76.20
2022-09-03T20:52:07.520Z,76.40
2022-09-03T20:54:37.991Z,76.50
2022-09-03T20:57:18.976Z,76.70
2022-09-03T21:00:02.163Z,76.80
2022-09-03T21:02:37.929Z,77.10
2022-09-03T21:05:16.626Z,77.30
2022-09-03T21:07:58.657Z,77.50
2022-09-03T21:10:39.700Z,78.00
2022-09-03T21:13:16.413Z,78.30
2022-09-03T21:15:57.497Z,78.70
2022-09-03T21:18:56.759Z,79.20
2022-09-03T21:21:42.477Z,79.70
2022-09-03T21:24:17.870Z,80.30
2022-09-03T21:26:46.909Z,80.80
2022-09-03T21:29:22.955Z,81.20
2022-09-03T21:32:10.462Z,81.90
2022-09-03T21:34:58.407Z,82.40
2022-09-03T21:37:25.302Z,83.00
2022-09-03T21:39:54.748Z,83.80
2022-09-03T21:42:38.478Z,84.30
2022-09-03T21:45:35.523Z,84.90
2022-09-03T21:48:10.553Z,85.50
2022-09-03T21:50:54.608Z,86.20
2022-09-03T21:53:27.602Z,86.90
2022-09-03T21:56:32.900Z,87.30
2022-09-03T21:59:23.807Z,87.80
2022-09-03T22:02:03.022Z,88.40
2022-09-03T22:04:29.984Z,89.20
2022-09-03T22:07:39.566Z,90.00
2022-09-03T22:10:20.270Z,90.20
2022-09-03T22:13:02.450Z,90.60
2022-09-03T22:15:30.217Z,90.80
2022-09-03T22:18:28.511Z,91.20
2022-09-03T22:21:35.962Z,91.40
2022-09-03T22:24:19.113Z,91.80
2022-09-03T22:27:04.353Z,92.10
2022-09-03T22:29:34.454Z,92.50
2022-09-03T22:32:24.493Z,92.70
2022-09-03T22:35:11.154Z,93.00
2022-09-03T22:38:01.300Z,93.40
2022-09-03T22:40:40.908Z,93.80
2022-09-03T22:43:36.854Z,94.10
2022-09-03T22:46:14.780Z,94.40
2022-09-03T22:49:07.148Z,94.70
2022-09-03T22:51:47.839Z,95.00
2022-09-03T22:54:26.735Z,95.30
2022-09-03T22:56:53.710Z,95.70
2022-09-03T22:59:38.856Z,96.10
2022-09-03T23:02:11.526Z,96.20
2022-09-03T23:05:07.864Z,96.50
2022-09-03T23:08:11.331Z,96.70
2022-09-03T23:11:14.972Z,97.00
2022-09-03T23:13:43.538Z,97.30
2022-09-03T23:16:37.845Z,97.50
2022-09-03T23:19:38.949Z,97.70
2022-09-03T23:22:10.013Z,98.00
2022-09-03T23:25:06.813Z,98.30
2022-09-03T23:27:43.116Z,98.60
2022-09-03T23:30:10.308Z,98.90
2022-09-03T23:32:37.454Z,99.10
2022-09-03T23:35:11.008Z,99.20
2022-09-03T23:37:50.181Z,99.50
2022-09-03T23:40:43.714Z,99.70
2022-09-03T23:43:15.708Z,99.90
2022-09-03T23:46:13.643Z,99.90
2022-09-03T23:49:08.899Z,99.90
2022-09-03T23:51:57.270Z,99.90
2022-09-03T23:55:06.121Z,99.90
2022-09-03T23:57:41.272Z,99.90
